sensor_id;sensor_type;location;lat;lon;timestamp;P1;durP1;ratioP1;P2;durP2;ratioP2
11620;SDS011;5866;49.094;11.900;2023-02-28T00:01:26;7.33;;;4.77;;
11620;SDS011;5866;49.094;11.900;2023-02-28T00:03:54;5.70;;;5.17;;
11620;SDS011;5866;49.094;11.900;2023-02-28T00:06:22;6.17;;;5.23;;
11620;SDS011;5866;49.094;11.900;2023-02-28T00:08:50;6.20;;;5.47;;
11620;SDS011;5866;49.094;11.900;2023-02-28T00:11:19;6.50;;;5.27;;
11620;SDS011;5866;49.094;11.900;2023-02-28T00:13:46;7.17;;;5.90;;
11620;SDS011;5866;49.094;11.900;2023-02-28T00:16:16;6.53;;;5.80;;
11620;SDS011;5866;49.094;11.900;2023-02-28T00:18:45;6.83;;;5.90;;
11620;SDS011;5866;49.094;11.900;2023-02-28T00:21:14;5.80;;;5.30;;
11620;SDS011;5866;49.094;11.900;2023-02-28T00:23:42;6.57;;;5.80;;
11620;SDS011;5866;49.094;11.900;2023-02-28T00:26:09;7.90;;;5.90;;
11620;SDS011;5866;49.094;11.900;2023-02-28T00:28:38;6.20;;;5.53;;
11620;SDS011;5866;49.094;11.900;2023-02-28T00:31:06;7.40;;;6.10;;
11620;SDS011;5866;49.094;11.900;2023-02-28T00:33:34;7.27;;;5.53;;
11620;SDS011;5866;49.094;11.900;2023-02-28T00:36:02;8.47;;;6.10;;
11620;SDS011;5866;49.094;11.900;2023-02-28T00:38:32;8.13;;;5.97;;
11620;SDS011;5866;49.094;11.900;2023-02-28T00:40:59;6.27;;;5.47;;
11620;SDS011;5866;49.094;11.900;2023-02-28T00:43:31;8.50;;;6.10;;
11620;SDS011;5866;49.094;11.900;2023-02-28T00:46:01;6.57;;;5.87;;
11620;SDS011;5866;49.094;11.900;2023-02-28T00:48:29;6.63;;;5.73;;
11620;SDS011;5866;49.094;11.900;2023-02-28T00:50:56;6.63;;;5.30;;
11620;SDS011;5866;49.094;11.900;2023-02-28T00:53:24;7.50;;;6.10;;
11620;SDS011;5866;49.094;11.900;2023-02-28T00:55:52;8.30;;;6.10;;
11620;SDS011;5866;49.094;11.900;2023-02-28T00:58:19;7.47;;;6.03;;
11620;SDS011;5866;49.094;11.900;2023-02-28T01:00:47;6.43;;;5.80;;
11620;SDS011;5866;49.094;11.900;2023-02-28T01:03:17;6.20;;;5.60;;
11620;SDS011;5866;49.094;11.900;2023-02-28T01:05:46;6.07;;;5.47;;
11620;SDS011;5866;49.094;11.900;2023-02-28T01:08:14;6.47;;;5.40;;
11620;SDS011;5866;49.094;11.900;2023-02-28T01:10:42;7.27;;;6.23;;
11620;SDS011;5866;49.094;11.900;2023-02-28T01:13:09;7.60;;;6.33;;
11620;SDS011;5866;49.094;11.900;2023-02-28T01:15:37;8.47;;;6.20;;
11620;SDS011;5866;49.094;11.900;2023-02-28T01:18:06;8.63;;;5.63;;
11620;SDS011;5866;49.094;11.900;2023-02-28T01:20:37;9.13;;;6.30;;
11620;SDS011;5866;49.094;11.900;2023-02-28T01:23:04;7.70;;;6.33;;
11620;SDS011;5866;49.094;11.900;2023-02-28T01:25:33;6.90;;;6.30;;
11620;SDS011;5866;49.094;11.900;2023-02-28T01:28:01;9.07;;;6.40;;
11620;SDS011;5866;49.094;11.900;2023-02-28T01:30:29;8.43;;;7.23;;
11620;SDS011;5866;49.094;11.900;2023-02-28T01:32:57;8.67;;;7.27;;
11620;SDS011;5866;49.094;11.900;2023-02-28T01:35:24;8.23;;;7.43;;
11620;SDS011;5866;49.094;11.900;2023-02-28T01:37:53;11.07;;;7.00;;
11620;SDS011;5866;49.094;11.900;2023-02-28T01:40:26;8.40;;;7.50;;
11620;SDS011;5866;49.094;11.900;2023-02-28T01:42:53;7.13;;;6.50;;
11620;SDS011;5866;49.094;11.900;2023-02-28T01:45:22;9.43;;;8.53;;
11620;SDS011;5866;49.094;11.900;2023-02-28T01:47:53;8.20;;;7.40;;
11620;SDS011;5866;49.094;11.900;2023-02-28T01:50:25;7.50;;;6.80;;
11620;SDS011;5866;49.094;11.900;2023-02-28T01:52:57;8.13;;;7.43;;
11620;SDS011;5866;49.094;11.900;2023-02-28T01:55:28;10.50;;;9.50;;
11620;SDS011;5866;49.094;11.900;2023-02-28T01:57:57;10.93;;;10.00;;
11620;SDS011;5866;49.094;11.900;2023-02-28T02:00:28;10.83;;;10.03;;
11620;SDS011;5866;49.094;11.900;2023-02-28T02:02:58;14.03;;;12.93;;
11620;SDS011;5866;49.094;11.900;2023-02-28T02:05:29;12.80;;;11.73;;
11620;SDS011;5866;49.094;11.900;2023-02-28T02:08:00;13.17;;;12.00;;
11620;SDS011;5866;49.094;11.900;2023-02-28T02:10:31;10.00;;;9.37;;
11620;SDS011;5866;49.094;11.900;2023-02-28T02:15:54;9.87;;;8.90;;
11620;SDS011;5866;49.094;11.900;2023-02-28T02:18:29;8.90;;;7.43;;
11620;SDS011;5866;49.094;11.900;2023-02-28T02:21:10;7.60;;;6.80;;
11620;SDS011;5866;49.094;11.900;2023-02-28T02:24:04;11.07;;;10.07;;
11620;SDS011;5866;49.094;11.900;2023-02-28T02:26:52;10.43;;;8.07;;
11620;SDS011;5866;49.094;11.900;2023-02-28T02:32:28;8.97;;;7.23;;
11620;SDS011;5866;49.094;11.900;2023-02-28T02:35:17;8.90;;;8.00;;
11620;SDS011;5866;49.094;11.900;2023-02-28T02:37:52;11.50;;;10.30;;
11620;SDS011;5866;49.094;11.900;2023-02-28T02:40:32;13.00;;;11.40;;
11620;SDS011;5866;49.094;11.900;2023-02-28T02:43:06;9.17;;;8.20;;
11620;SDS011;5866;49.094;11.900;2023-02-28T02:45:42;9.63;;;8.67;;
11620;SDS011;5866;49.094;11.900;2023-02-28T02:48:14;12.97;;;11.67;;
11620;SDS011;5866;49.094;11.900;2023-02-28T02:50:46;13.73;;;12.33;;
11620;SDS011;5866;49.094;11.900;2023-02-28T02:53:18;13.10;;;11.80;;
11620;SDS011;5866;49.094;11.900;2023-02-28T02:55:51;14.03;;;12.83;;
11620;SDS011;5866;49.094;11.900;2023-02-28T02:58:22;12.10;;;11.10;;
11620;SDS011;5866;49.094;11.900;2023-02-28T03:00:55;12.43;;;11.23;;
11620;SDS011;5866;49.094;11.900;2023-02-28T03:03:28;15.30;;;13.80;;
11620;SDS011;5866;49.094;11.900;2023-02-28T03:06:00;14.13;;;12.83;;
11620;SDS011;5866;49.094;11.900;2023-02-28T03:08:29;13.20;;;11.90;;
11620;SDS011;5866;49.094;11.900;2023-02-28T03:11:01;14.70;;;13.33;;
11620;SDS011;5866;49.094;11.900;2023-02-28T03:13:40;13.77;;;12.37;;
11620;SDS011;5866;49.094;11.900;2023-02-28T03:16:22;11.53;;;10.33;;
11620;SDS011;5866;49.094;11.900;2023-02-28T03:18:58;13.50;;;12.10;;
11620;SDS011;5866;49.094;11.900;2023-02-28T03:21:36;8.40;;;7.60;;
11620;SDS011;5866;49.094;11.900;2023-02-28T03:24:08;13.17;;;9.40;;
11620;SDS011;5866;49.094;11.900;2023-02-28T03:26:41;11.03;;;8.70;;
11620;SDS011;5866;49.094;11.900;2023-02-28T03:29:13;10.20;;;9.17;;
11620;SDS011;5866;49.094;11.900;2023-02-28T03:31:50;13.70;;;9.40;;
11620;SDS011;5866;49.094;11.900;2023-02-28T03:34:22;18.47;;;16.63;;
11620;SDS011;5866;49.094;11.900;2023-02-28T03:36:55;11.87;;;9.13;;
11620;SDS011;5866;49.094;11.900;2023-02-28T03:39:28;12.20;;;10.63;;
11620;SDS011;5866;49.094;11.900;2023-02-28T03:42:01;10.87;;;9.00;;
11620;SDS011;5866;49.094;11.900;2023-02-28T03:44:34;10.60;;;9.30;;
11620;SDS011;5866;49.094;11.900;2023-02-28T03:47:04;13.90;;;9.30;;
11620;SDS011;5866;49.094;11.900;2023-02-28T03:49:36;12.43;;;11.23;;
11620;SDS011;5866;49.094;11.900;2023-02-28T03:52:11;13.40;;;12.03;;
11620;SDS011;5866;49.094;11.900;2023-02-28T03:54:40;30.70;;;28.20;;
11620;SDS011;5866;49.094;11.900;2023-02-28T03:57:12;14.47;;;10.63;;
11620;SDS011;5866;49.094;11.900;2023-02-28T03:59:47;13.00;;;10.70;;
11620;SDS011;5866;49.094;11.900;2023-02-28T04:02:21;11.77;;;9.00;;
11620;SDS011;5866;49.094;11.900;2023-02-28T04:04:48;15.53;;;10.00;;
11620;SDS011;5866;49.094;11.900;2023-02-28T04:07:18;16.33;;;9.90;;
11620;SDS011;5866;49.094;11.900;2023-02-28T04:09:46;12.47;;;10.13;;
11620;SDS011;5866;49.094;11.900;2023-02-28T04:12:13;13.63;;;9.97;;
11620;SDS011;5866;49.094;11.900;2023-02-28T04:14:41;14.63;;;10.97;;
11620;SDS011;5866;49.094;11.900;2023-02-28T04:17:08;13.00;;;11.70;;
11620;SDS011;5866;49.094;11.900;2023-02-28T04:19:36;14.43;;;11.43;;
11620;SDS011;5866;49.094;11.900;2023-02-28T04:22:03;12.93;;;10.77;;
11620;SDS011;5866;49.094;11.900;2023-02-28T04:24:32;15.17;;;13.43;;
11620;SDS011;5866;49.094;11.900;2023-02-28T04:27:00;13.93;;;10.90;;
11620;SDS011;5866;49.094;11.900;2023-02-28T04:29:28;20.20;;;11.90;;
11620;SDS011;5866;49.094;11.900;2023-02-28T04:31:58;14.53;;;12.43;;
11620;SDS011;5866;49.094;11.900;2023-02-28T04:34:27;13.33;;;11.27;;
11620;SDS011;5866;49.094;11.900;2023-02-28T04:36:55;15.23;;;12.20;;
11620;SDS011;5866;49.094;11.900;2023-02-28T04:39:41;13.90;;;11.50;;
11620;SDS011;5866;49.094;11.900;2023-02-28T04:42:09;15.27;;;12.70;;
11620;SDS011;5866;49.094;11.900;2023-02-28T04:44:37;15.80;;;11.63;;
11620;SDS011;5866;49.094;11.900;2023-02-28T04:47:05;14.00;;;11.80;;
11620;SDS011;5866;49.094;11.900;2023-02-28T04:49:32;15.80;;;10.87;;
11620;SDS011;5866;49.094;11.900;2023-02-28T04:52:00;15.33;;;12.40;;
11620;SDS011;5866;49.094;11.900;2023-02-28T04:54:28;13.60;;;12.10;;
11620;SDS011;5866;49.094;11.900;2023-02-28T04:56:57;17.07;;;13.40;;
11620;SDS011;5866;49.094;11.900;2023-02-28T04:59:24;15.03;;;13.23;;
11620;SDS011;5866;49.094;11.900;2023-02-28T05:01:52;14.03;;;11.60;;
11620;SDS011;5866;49.094;11.900;2023-02-28T05:04:19;14.13;;;11.67;;
11620;SDS011;5866;49.094;11.900;2023-02-28T05:06:47;15.57;;;13.10;;
11620;SDS011;5866;49.094;11.900;2023-02-28T05:09:14;14.67;;;12.87;;
11620;SDS011;5866;49.094;11.900;2023-02-28T05:11:42;17.10;;;14.17;;
11620;SDS011;5866;49.094;11.900;2023-02-28T05:14:12;18.20;;;13.27;;
11620;SDS011;5866;49.094;11.900;2023-02-28T05:16:41;14.03;;;12.50;;
11620;SDS011;5866;49.094;11.900;2023-02-28T05:19:09;15.03;;;12.90;;
11620;SDS011;5866;49.094;11.900;2023-02-28T05:21:37;16.30;;;12.03;;
11620;SDS011;5866;49.094;11.900;2023-02-28T05:24:07;17.87;;;13.53;;
11620;SDS011;5866;49.094;11.900;2023-02-28T05:26:38;15.67;;;12.30;;
11620;SDS011;5866;49.094;11.900;2023-02-28T05:29:06;18.30;;;14.50;;
11620;SDS011;5866;49.094;11.900;2023-02-28T05:31:36;15.90;;;14.00;;
11620;SDS011;5866;49.094;11.900;2023-02-28T05:34:05;16.73;;;12.83;;
11620;SDS011;5866;49.094;11.900;2023-02-28T05:36:32;16.13;;;13.60;;
11620;SDS011;5866;49.094;11.900;2023-02-28T05:39:00;17.10;;;12.73;;
11620;SDS011;5866;49.094;11.900;2023-02-28T05:41:29;16.40;;;13.63;;
11620;SDS011;5866;49.094;11.900;2023-02-28T05:43:57;17.63;;;13.17;;
11620;SDS011;5866;49.094;11.900;2023-02-28T05:46:25;16.77;;;13.87;;
11620;SDS011;5866;49.094;11.900;2023-02-28T05:48:54;17.73;;;14.83;;
11620;SDS011;5866;49.094;11.900;2023-02-28T05:51:24;16.47;;;14.13;;
11620;SDS011;5866;49.094;11.900;2023-02-28T05:53:51;19.33;;;14.50;;
11620;SDS011;5866;49.094;11.900;2023-02-28T05:56:19;15.93;;;13.67;;
11620;SDS011;5866;49.094;11.900;2023-02-28T05:58:46;17.17;;;14.73;;
11620;SDS011;5866;49.094;11.900;2023-02-28T06:01:24;17.20;;;15.47;;
11620;SDS011;5866;49.094;11.900;2023-02-28T06:03:59;18.07;;;13.67;;
11620;SDS011;5866;49.094;11.900;2023-02-28T06:06:27;16.43;;;13.20;;
11620;SDS011;5866;49.094;11.900;2023-02-28T06:08:56;19.20;;;14.00;;
11620;SDS011;5866;49.094;11.900;2023-02-28T06:11:23;14.03;;;12.53;;
11620;SDS011;5866;49.094;11.900;2023-02-28T06:13:54;19.57;;;14.87;;
11620;SDS011;5866;49.094;11.900;2023-02-28T06:16:22;16.27;;;13.40;;
11620;SDS011;5866;49.094;11.900;2023-02-28T06:18:50;14.07;;;11.17;;
11620;SDS011;5866;49.094;11.900;2023-02-28T06:21:23;14.67;;;12.63;;
11620;SDS011;5866;49.094;11.900;2023-02-28T06:23:50;16.43;;;13.57;;
11620;SDS011;5866;49.094;11.900;2023-02-28T06:26:18;16.67;;;13.93;;
11620;SDS011;5866;49.094;11.900;2023-02-28T06:28:46;15.53;;;12.80;;
11620;SDS011;5866;49.094;11.900;2023-02-28T06:31:14;14.90;;;11.93;;
11620;SDS011;5866;49.094;11.900;2023-02-28T06:33:43;13.80;;;10.77;;
11620;SDS011;5866;49.094;11.900;2023-02-28T06:36:12;14.97;;;11.07;;
11620;SDS011;5866;49.094;11.900;2023-02-28T06:38:42;11.07;;;9.97;;
11620;SDS011;5866;49.094;11.900;2023-02-28T06:41:10;12.30;;;10.43;;
11620;SDS011;5866;49.094;11.900;2023-02-28T06:43:39;12.00;;;10.17;;
11620;SDS011;5866;49.094;11.900;2023-02-28T06:46:10;23.10;;;21.20;;
11620;SDS011;5866;49.094;11.900;2023-02-28T06:48:40;36.77;;;34.00;;
11620;SDS011;5866;49.094;11.900;2023-02-28T06:51:10;42.83;;;39.73;;
11620;SDS011;5866;49.094;11.900;2023-02-28T06:53:39;37.77;;;35.30;;
11620;SDS011;5866;49.094;11.900;2023-02-28T06:56:09;34.03;;;31.87;;
11620;SDS011;5866;49.094;11.900;2023-02-28T06:58:38;16.00;;;14.77;;
11620;SDS011;5866;49.094;11.900;2023-02-28T07:01:06;7.83;;;6.50;;
11620;SDS011;5866;49.094;11.900;2023-02-28T07:03:35;9.23;;;8.33;;
11620;SDS011;5866;49.094;11.900;2023-02-28T07:06:04;10.57;;;7.93;;
11620;SDS011;5866;49.094;11.900;2023-02-28T07:08:32;7.13;;;6.13;;
11620;SDS011;5866;49.094;11.900;2023-02-28T07:11:00;11.27;;;8.47;;
11620;SDS011;5866;49.094;11.900;2023-02-28T07:13:29;7.60;;;5.87;;
11620;SDS011;5866;49.094;11.900;2023-02-28T07:15:57;11.23;;;7.77;;
11620;SDS011;5866;49.094;11.900;2023-02-28T07:18:26;7.07;;;5.77;;
11620;SDS011;5866;49.094;11.900;2023-02-28T07:20:54;8.20;;;5.23;;
11620;SDS011;5866;49.094;11.900;2023-02-28T07:23:22;8.70;;;6.97;;
11620;SDS011;5866;49.094;11.900;2023-02-28T07:25:50;9.10;;;8.30;;
11620;SDS011;5866;49.094;11.900;2023-02-28T07:28:18;4.87;;;4.43;;
11620;SDS011;5866;49.094;11.900;2023-02-28T07:30:46;7.93;;;6.13;;
11620;SDS011;5866;49.094;11.900;2023-02-28T07:33:15;6.97;;;5.50;;
11620;SDS011;5866;49.094;11.900;2023-02-28T07:35:42;10.97;;;7.27;;
11620;SDS011;5866;49.094;11.900;2023-02-28T07:38:10;9.67;;;7.20;;
11620;SDS011;5866;49.094;11.900;2023-02-28T07:40:39;5.80;;;4.37;;
11620;SDS011;5866;49.094;11.900;2023-02-28T07:43:07;21.13;;;19.83;;
11620;SDS011;5866;49.094;11.900;2023-02-28T07:45:34;8.47;;;7.57;;
11620;SDS011;5866;49.094;11.900;2023-02-28T07:48:03;6.73;;;6.03;;
11620;SDS011;5866;49.094;11.900;2023-02-28T07:50:31;12.57;;;11.63;;
11620;SDS011;5866;49.094;11.900;2023-02-28T07:52:58;10.20;;;9.30;;
11620;SDS011;5866;49.094;11.900;2023-02-28T07:55:26;6.07;;;5.47;;
11620;SDS011;5866;49.094;11.900;2023-02-28T07:57:54;8.87;;;5.13;;
11620;SDS011;5866;49.094;11.900;2023-02-28T08:00:23;8.53;;;6.50;;
11620;SDS011;5866;49.094;11.900;2023-02-28T08:02:51;5.60;;;4.07;;
11620;SDS011;5866;49.094;11.900;2023-02-28T08:05:20;6.33;;;5.07;;
11620;SDS011;5866;49.094;11.900;2023-02-28T08:07:48;7.17;;;6.57;;
11620;SDS011;5866;49.094;11.900;2023-02-28T08:10:16;21.37;;;19.87;;
11620;SDS011;5866;49.094;11.900;2023-02-28T08:12:44;7.43;;;5.43;;
11620;SDS011;5866;49.094;11.900;2023-02-28T08:15:11;11.00;;;10.10;;
11620;SDS011;5866;49.094;11.900;2023-02-28T08:17:39;12.93;;;11.80;;
11620;SDS011;5866;49.094;11.900;2023-02-28T08:20:07;11.30;;;10.10;;
11620;SDS011;5866;49.094;11.900;2023-02-28T08:22:37;6.93;;;5.40;;
11620;SDS011;5866;49.094;11.900;2023-02-28T08:25:05;6.03;;;4.40;;
11620;SDS011;5866;49.094;11.900;2023-02-28T08:27:33;5.53;;;4.17;;
11620;SDS011;5866;49.094;11.900;2023-02-28T08:30:01;6.80;;;5.63;;
11620;SDS011;5866;49.094;11.900;2023-02-28T08:32:29;12.07;;;11.07;;
11620;SDS011;5866;49.094;11.900;2023-02-28T08:34:56;11.97;;;11.10;;
11620;SDS011;5866;49.094;11.900;2023-02-28T08:37:24;12.87;;;11.83;;
11620;SDS011;5866;49.094;11.900;2023-02-28T08:39:53;12.20;;;8.20;;
11620;SDS011;5866;49.094;11.900;2023-02-28T08:42:21;17.53;;;16.17;;
11620;SDS011;5866;49.094;11.900;2023-02-28T08:44:49;8.03;;;6.97;;
11620;SDS011;5866;49.094;11.900;2023-02-28T08:47:17;9.27;;;5.80;;
11620;SDS011;5866;49.094;11.900;2023-02-28T08:49:44;7.93;;;5.10;;
11620;SDS011;5866;49.094;11.900;2023-02-28T08:52:12;7.60;;;5.70;;
11620;SDS011;5866;49.094;11.900;2023-02-28T08:54:39;5.77;;;5.27;;
11620;SDS011;5866;49.094;11.900;2023-02-28T08:57:08;5.60;;;4.50;;
11620;SDS011;5866;49.094;11.900;2023-02-28T08:59:36;7.33;;;5.60;;
11620;SDS011;5866;49.094;11.900;2023-02-28T09:02:03;8.60;;;4.80;;
11620;SDS011;5866;49.094;11.900;2023-02-28T09:04:31;8.93;;;8.13;;
11620;SDS011;5866;49.094;11.900;2023-02-28T09:06:58;6.90;;;5.30;;
11620;SDS011;5866;49.094;11.900;2023-02-28T09:09:26;5.23;;;4.43;;
11620;SDS011;5866;49.094;11.900;2023-02-28T09:11:54;9.03;;;6.27;;
11620;SDS011;5866;49.094;11.900;2023-02-28T09:14:23;6.27;;;5.60;;
11620;SDS011;5866;49.094;11.900;2023-02-28T09:16:51;7.20;;;5.50;;
11620;SDS011;5866;49.094;11.900;2023-02-28T09:19:18;8.40;;;6.13;;
11620;SDS011;5866;49.094;11.900;2023-02-28T09:21:46;6.33;;;5.30;;
11620;SDS011;5866;49.094;11.900;2023-02-28T09:24:14;8.27;;;7.57;;
11620;SDS011;5866;49.094;11.900;2023-02-28T09:26:41;9.60;;;6.30;;
11620;SDS011;5866;49.094;11.900;2023-02-28T09:29:30;8.20;;;6.07;;
11620;SDS011;5866;49.094;11.900;2023-02-28T09:31:57;7.40;;;6.13;;
11620;SDS011;5866;49.094;11.900;2023-02-28T09:34:25;7.17;;;6.30;;
11620;SDS011;5866;49.094;11.900;2023-02-28T09:36:54;5.17;;;4.67;;
11620;SDS011;5866;49.094;11.900;2023-02-28T09:39:22;5.80;;;5.20;;
11620;SDS011;5866;49.094;11.900;2023-02-28T09:41:51;6.73;;;5.20;;
11620;SDS011;5866;49.094;11.900;2023-02-28T09:44:20;7.07;;;5.80;;
11620;SDS011;5866;49.094;11.900;2023-02-28T09:46:57;11.10;;;8.77;;
11620;SDS011;5866;49.094;11.900;2023-02-28T09:49:31;9.80;;;8.97;;
11620;SDS011;5866;49.094;11.900;2023-02-28T09:52:05;16.87;;;14.43;;
11620;SDS011;5866;49.094;11.900;2023-02-28T09:54:36;10.67;;;9.30;;
11620;SDS011;5866;49.094;11.900;2023-02-28T09:57:06;8.00;;;7.33;;
11620;SDS011;5866;49.094;11.900;2023-02-28T09:59:39;10.77;;;9.67;;
11620;SDS011;5866;49.094;11.900;2023-02-28T10:02:17;13.77;;;12.57;;
11620;SDS011;5866;49.094;11.900;2023-02-28T10:04:57;18.27;;;16.97;;
11620;SDS011;5866;49.094;11.900;2023-02-28T10:07:36;16.67;;;15.47;;
11620;SDS011;5866;49.094;11.900;2023-02-28T10:10:19;24.83;;;23.13;;
11620;SDS011;5866;49.094;11.900;2023-02-28T10:12:48;13.83;;;12.73;;
11620;SDS011;5866;49.094;11.900;2023-02-28T10:15:21;15.70;;;14.47;;
11620;SDS011;5866;49.094;11.900;2023-02-28T10:17:53;20.80;;;19.17;;
11620;SDS011;5866;49.094;11.900;2023-02-28T10:20:34;23.37;;;21.73;;
11620;SDS011;5866;49.094;11.900;2023-02-28T10:23:05;18.10;;;16.70;;
11620;SDS011;5866;49.094;11.900;2023-02-28T10:25:40;14.70;;;13.60;;
11620;SDS011;5866;49.094;11.900;2023-02-28T10:28:14;16.83;;;15.53;;
11620;SDS011;5866;49.094;11.900;2023-02-28T10:30:44;15.23;;;14.03;;
11620;SDS011;5866;49.094;11.900;2023-02-28T10:33:20;23.20;;;21.70;;
11620;SDS011;5866;49.094;11.900;2023-02-28T10:35:50;16.47;;;15.07;;
11620;SDS011;5866;49.094;11.900;2023-02-28T10:38:19;17.10;;;15.90;;
11620;SDS011;5866;49.094;11.900;2023-02-28T10:40:49;17.80;;;16.47;;
11620;SDS011;5866;49.094;11.900;2023-02-28T10:43:21;22.80;;;21.20;;
11620;SDS011;5866;49.094;11.900;2023-02-28T10:45:55;26.57;;;24.43;;
11620;SDS011;5866;49.094;11.900;2023-02-28T10:48:32;19.53;;;18.10;;
11620;SDS011;5866;49.094;11.900;2023-02-28T10:51:01;20.53;;;18.90;;
11620;SDS011;5866;49.094;11.900;2023-02-28T10:53:31;14.87;;;13.70;;
11620;SDS011;5866;49.094;11.900;2023-02-28T10:56:22;13.33;;;12.33;;
11620;SDS011;5866;49.094;11.900;2023-02-28T10:58:52;14.23;;;13.03;;
11620;SDS011;5866;49.094;11.900;2023-02-28T11:01:21;16.43;;;15.33;;
11620;SDS011;5866;49.094;11.900;2023-02-28T11:03:52;16.40;;;14.83;;
11620;SDS011;5866;49.094;11.900;2023-02-28T11:06:20;21.90;;;20.47;;
11620;SDS011;5866;49.094;11.900;2023-02-28T11:08:50;27.27;;;25.17;;
11620;SDS011;5866;49.094;11.900;2023-02-28T11:11:22;21.63;;;20.17;;
11620;SDS011;5866;49.094;11.900;2023-02-28T11:13:55;30.00;;;28.07;;
11620;SDS011;5866;49.094;11.900;2023-02-28T11:16:31;29.17;;;27.30;;
11620;SDS011;5866;49.094;11.900;2023-02-28T11:19:02;24.13;;;22.57;;
11620;SDS011;5866;49.094;11.900;2023-02-28T11:21:31;28.30;;;26.20;;
11620;SDS011;5866;49.094;11.900;2023-02-28T11:24:01;25.33;;;23.40;;
11620;SDS011;5866;49.094;11.900;2023-02-28T11:26:38;27.60;;;25.67;;
11620;SDS011;5866;49.094;11.900;2023-02-28T11:29:12;24.47;;;22.87;;
11620;SDS011;5866;49.094;11.900;2023-02-28T11:32:00;28.50;;;26.60;;
11620;SDS011;5866;49.094;11.900;2023-02-28T11:34:31;24.60;;;22.93;;
11620;SDS011;5866;49.094;11.900;2023-02-28T11:36:59;22.90;;;21.40;;
11620;SDS011;5866;49.094;11.900;2023-02-28T11:39:31;26.43;;;24.63;;
11620;SDS011;5866;49.094;11.900;2023-02-28T11:42:04;28.23;;;26.20;;
11620;SDS011;5866;49.094;11.900;2023-02-28T11:44:48;19.07;;;17.50;;
11620;SDS011;5866;49.094;11.900;2023-02-28T11:47:32;26.43;;;24.50;;
11620;SDS011;5866;49.094;11.900;2023-02-28T11:50:11;27.10;;;24.97;;
11620;SDS011;5866;49.094;11.900;2023-02-28T11:52:48;25.37;;;23.43;;
11620;SDS011;5866;49.094;11.900;2023-02-28T11:55:21;22.60;;;20.87;;
11620;SDS011;5866;49.094;11.900;2023-02-28T11:57:59;20.90;;;19.30;;
11620;SDS011;5866;49.094;11.900;2023-02-28T12:00:39;21.53;;;19.83;;
11620;SDS011;5866;49.094;11.900;2023-02-28T12:03:16;18.60;;;17.10;;
11620;SDS011;5866;49.094;11.900;2023-02-28T12:05:53;19.13;;;17.63;;
11620;SDS011;5866;49.094;11.900;2023-02-28T12:08:37;21.67;;;20.03;;
11620;SDS011;5866;49.094;11.900;2023-02-28T12:11:12;23.83;;;22.03;;
11620;SDS011;5866;49.094;11.900;2023-02-28T12:13:48;22.37;;;20.87;;
11620;SDS011;5866;49.094;11.900;2023-02-28T12:19:25;23.60;;;21.90;;
11620;SDS011;5866;49.094;11.900;2023-02-28T12:22:05;21.73;;;20.20;;
11620;SDS011;5866;49.094;11.900;2023-02-28T12:24:51;20.20;;;18.90;;
11620;SDS011;5866;49.094;11.900;2023-02-28T12:27:28;23.87;;;22.13;;
11620;SDS011;5866;49.094;11.900;2023-02-28T12:30:00;20.93;;;19.53;;
11620;SDS011;5866;49.094;11.900;2023-02-28T12:32:33;27.23;;;25.27;;
11620;SDS011;5866;49.094;11.900;2023-02-28T12:35:06;30.10;;;27.93;;
11620;SDS011;5866;49.094;11.900;2023-02-28T12:37:42;30.53;;;28.47;;
11620;SDS011;5866;49.094;11.900;2023-02-28T12:40:17;18.30;;;16.97;;
11620;SDS011;5866;49.094;11.900;2023-02-28T12:42:49;25.57;;;23.93;;
11620;SDS011;5866;49.094;11.900;2023-02-28T12:45:19;22.17;;;20.47;;
11620;SDS011;5866;49.094;11.900;2023-02-28T12:47:50;24.87;;;23.13;;
11620;SDS011;5866;49.094;11.900;2023-02-28T12:50:24;27.33;;;25.27;;
11620;SDS011;5866;49.094;11.900;2023-02-28T12:52:55;24.57;;;22.87;;
11620;SDS011;5866;49.094;11.900;2023-02-28T12:55:29;27.03;;;24.90;;
11620;SDS011;5866;49.094;11.900;2023-02-28T12:58:05;23.73;;;22.03;;
11620;SDS011;5866;49.094;11.900;2023-02-28T13:00:43;21.83;;;20.20;;
11620;SDS011;5866;49.094;11.900;2023-02-28T13:03:37;18.30;;;16.80;;
11620;SDS011;5866;49.094;11.900;2023-02-28T13:06:20;17.77;;;16.27;;
11620;SDS011;5866;49.094;11.900;2023-02-28T13:09:09;20.50;;;19.10;;
11620;SDS011;5866;49.094;11.900;2023-02-28T13:11:39;20.57;;;18.80;;
11620;SDS011;5866;49.094;11.900;2023-02-28T13:14:24;20.03;;;18.23;;
11620;SDS011;5866;49.094;11.900;2023-02-28T13:16:57;20.23;;;18.70;;
11620;SDS011;5866;49.094;11.900;2023-02-28T13:19:27;19.97;;;18.60;;
11620;SDS011;5866;49.094;11.900;2023-02-28T13:21:58;26.00;;;24.20;;
11620;SDS011;5866;49.094;11.900;2023-02-28T13:24:38;29.20;;;27.20;;
11620;SDS011;5866;49.094;11.900;2023-02-28T13:30:02;18.07;;;16.77;;
11620;SDS011;5866;49.094;11.900;2023-02-28T13:33:19;17.00;;;15.60;;
11620;SDS011;5866;49.094;11.900;2023-02-28T13:36:00;14.83;;;13.63;;
11620;SDS011;5866;49.094;11.900;2023-02-28T13:38:36;15.13;;;14.03;;
11620;SDS011;5866;49.094;11.900;2023-02-28T13:44:12;16.83;;;15.67;;
11620;SDS011;5866;49.094;11.900;2023-02-28T13:49:49;21.10;;;19.60;;
11620;SDS011;5866;49.094;11.900;2023-02-28T13:52:19;17.53;;;16.23;;
11620;SDS011;5866;49.094;11.900;2023-02-28T13:54:56;20.83;;;19.43;;
11620;SDS011;5866;49.094;11.900;2023-02-28T13:57:34;23.37;;;21.80;;
11620;SDS011;5866;49.094;11.900;2023-02-28T14:00:17;27.53;;;25.53;;
11620;SDS011;5866;49.094;11.900;2023-02-28T14:02:59;24.40;;;22.57;;
11620;SDS011;5866;49.094;11.900;2023-02-28T14:05:37;23.50;;;21.90;;
11620;SDS011;5866;49.094;11.900;2023-02-28T14:08:05;13.20;;;12.27;;
11620;SDS011;5866;49.094;11.900;2023-02-28T14:10:41;20.93;;;19.63;;
11620;SDS011;5866;49.094;11.900;2023-02-28T14:13:12;22.50;;;20.87;;
11620;SDS011;5866;49.094;11.900;2023-02-28T14:15:55;22.07;;;20.47;;
11620;SDS011;5866;49.094;11.900;2023-02-28T14:18:25;20.13;;;18.83;;
11620;SDS011;5866;49.094;11.900;2023-02-28T14:21:08;18.47;;;17.17;;
11620;SDS011;5866;49.094;11.900;2023-02-28T14:24:02;16.20;;;15.10;;
11620;SDS011;5866;49.094;11.900;2023-02-28T14:26:59;20.90;;;19.60;;
11620;SDS011;5866;49.094;11.900;2023-02-28T14:32:51;23.43;;;21.73;;
11620;SDS011;5866;49.094;11.900;2023-02-28T14:35:35;19.03;;;17.73;;
11620;SDS011;5866;49.094;11.900;2023-02-28T14:38:16;18.47;;;16.90;;
11620;SDS011;5866;49.094;11.900;2023-02-28T14:40:47;17.63;;;16.23;;
11620;SDS011;5866;49.094;11.900;2023-02-28T14:43:19;13.50;;;12.30;;
11620;SDS011;5866;49.094;11.900;2023-02-28T14:45:49;15.27;;;14.17;;
11620;SDS011;5866;49.094;11.900;2023-02-28T14:48:19;23.10;;;21.33;;
11620;SDS011;5866;49.094;11.900;2023-02-28T14:50:51;21.27;;;19.83;;
11620;SDS011;5866;49.094;11.900;2023-02-28T14:53:22;23.83;;;22.23;;
11620;SDS011;5866;49.094;11.900;2023-02-28T14:55:52;29.73;;;27.60;;
11620;SDS011;5866;49.094;11.900;2023-02-28T14:58:22;28.70;;;26.60;;
11620;SDS011;5866;49.094;11.900;2023-02-28T15:00:52;27.33;;;25.53;;
11620;SDS011;5866;49.094;11.900;2023-02-28T15:03:22;27.27;;;25.47;;
11620;SDS011;5866;49.094;11.900;2023-02-28T15:05:51;29.60;;;27.60;;
11620;SDS011;5866;49.094;11.900;2023-02-28T15:08:21;26.73;;;25.03;;
11620;SDS011;5866;49.094;11.900;2023-02-28T15:10:53;27.47;;;25.77;;
11620;SDS011;5866;49.094;11.900;2023-02-28T15:13:23;23.43;;;21.73;;
11620;SDS011;5866;49.094;11.900;2023-02-28T15:15:59;21.20;;;19.50;;
11620;SDS011;5866;49.094;11.900;2023-02-28T15:18:31;15.10;;;13.70;;